createdAt,value
2022-08-11T00:01:46.268Z,100.00
2022-08-11T00:04:15.440Z,100.00
2022-08-11T00:06:45.038Z,100.00
2022-08-11T00:09:16.581Z,100.00
2022-08-11T00:11:50.994Z,100.00
2022-08-11T00:14:21.207Z,100.00
2022-08-11T00:17:06.187Z,100.00
2022-08-11T00:20:11.940Z,100.00
2022-08-11T00:22:32.485Z,100.00
2022-08-11T00:25:02.684Z,100.00
2022-08-11T00:27:37.550Z,100.00
2022-08-11T00:30:06.488Z,100.00
2022-08-11T00:32:34.673Z,100.00
2022-08-11T00:35:56.159Z,100.00
2022-08-11T00:37:55.001Z,100.00
2022-08-11T00:40:42.544Z,100.00
2022-08-11T00:43:38.779Z,100.00
2022-08-11T00:46:15.384Z,100.00
2022-08-11T00:49:24.355Z,100.00
2022-08-11T00:52:05.825Z,100.00
2022-08-11T00:54:45.208Z,100.00
2022-08-11T00:57:39.863Z,100.00
2022-08-11T01:00:35.357Z,100.00
2022-08-11T01:03:11.079Z,100.00
2022-08-11T01:05:59.582Z,100.00
2022-08-11T01:08:29.915Z,100.00
2022-08-11T01:10:57.217Z,100.00
2022-08-11T01:13:53.562Z,100.00
2022-08-11T01:16:36.084Z,100.00
2022-08-11T01:19:28.372Z,100.00
2022-08-11T01:22:07.716Z,100.00
2022-08-11T01:25:05.999Z,100.00
2022-08-11T01:28:06.998Z,100.00
2022-08-11T01:30:56.033Z,100.00
2022-08-11T01:33:35.195Z,100.00
2022-08-11T01:36:24.167Z,100.00
2022-08-11T01:39:29.297Z,100.00
2022-08-11T01:42:49.557Z,100.00
2022-08-11T01:45:41.891Z,100.00
2022-08-11T01:48:21.323Z,100.00
2022-08-11T01:51:17.103Z,100.00
2022-08-11T01:54:03.677Z,100.00
2022-08-11T01:56:39.199Z,100.00
2022-08-11T01:59:49.421Z,100.00
2022-08-11T02:02:46.592Z,100.00
2022-08-11T02:05:20.151Z,100.00
2022-08-11T02:07:58.973Z,100.00
2022-08-11T02:11:09.674Z,100.00
2022-08-11T02:14:01.515Z,100.00
2022-08-11T02:16:35.468Z,100.00
2022-08-11T02:19:36.460Z,100.00
2022-08-11T02:22:35.419Z,100.00
2022-08-11T02:25:19.089Z,100.00
2022-08-11T02:28:04.337Z,100.00
2022-08-11T02:30:38.932Z,100.00
2022-08-11T02:33:24.912Z,100.00
2022-08-11T02:36:09.977Z,100.00
2022-08-11T02:39:04.034Z,100.00
2022-08-11T02:42:08.796Z,100.00
2022-08-11T02:45:14.160Z,100.00
2022-08-11T02:48:13.231Z,100.00
2022-08-11T02:51:03.968Z,100.00
2022-08-11T02:53:40.212Z,100.00
2022-08-11T02:56:09.717Z,100.00
2022-08-11T02:59:23.772Z,100.00
2022-08-11T03:02:24.849Z,100.00
2022-08-11T03:04:57.839Z,100.00
2022-08-11T03:07:48.020Z,100.00
2022-08-11T03:10:17.526Z,100.00
2022-08-11T03:13:10.753Z,100.00
2022-08-11T03:16:45.880Z,100.00
2022-08-11T03:19:18.506Z,100.00
2022-08-11T03:22:03.221Z,100.00
2022-08-11T03:24:56.340Z,100.00
2022-08-11T03:27:41.147Z,100.00
2022-08-11T03:30:44.634Z,100.00
2022-08-11T03:33:44.180Z,100.00
2022-08-11T03:36:16.284Z,100.00
2022-08-11T03:39:22.943Z,100.00
2022-08-11T03:42:06.710Z,100.00
2022-08-11T03:44:56.020Z,100.00
2022-08-11T03:47:39.885Z,100.00
2022-08-11T03:50:31.343Z,100.00
2022-08-11T03:53:36.541Z,100.00
2022-08-11T03:56:40.484Z,100.00
2022-08-11T03:59:25.809Z,100.00
2022-08-11T04:02:34.464Z,100.00
2022-08-11T04:05:39.977Z,100.00
2022-08-11T04:08:25.920Z,100.00
2022-08-11T04:11:12.871Z,100.00
2022-08-11T04:14:42.387Z,100.00
2022-08-11T04:17:23.714Z,100.00
2022-08-11T04:20:29.367Z,100.00
2022-08-11T04:23:08.257Z,100.00
2022-08-11T04:26:15.958Z,100.00
2022-08-11T04:29:15.197Z,100.00
2022-08-11T04:32:02.136Z,100.00
2022-08-11T04:35:07.384Z,100.00
2022-08-11T04:37:55.412Z,100.00
2022-08-11T04:40:56.420Z,100.00
2022-08-11T04:44:05.631Z,100.00
2022-08-11T04:47:34.449Z,100.00
2022-08-11T04:51:08.891Z,100.00
2022-08-11T04:54:28.250Z,100.00
2022-08-11T04:57:23.300Z,100.00
2022-08-11T05:00:26.376Z,100.00
2022-08-11T05:03:14.934Z,100.00
2022-08-11T05:06:06.972Z,100.00
2022-08-11T05:08:52.790Z,100.00
2022-08-11T05:11:28.626Z,100.00
2022-08-11T05:14:29.445Z,100.00
2022-08-11T05:17:19.227Z,100.00
2022-08-11T05:20:06.788Z,100.00
2022-08-11T05:22:53.788Z,100.00
2022-08-11T05:26:43.644Z,100.00
2022-08-11T05:29:21.272Z,100.00
2022-08-11T05:32:18.341Z,100.00
2022-08-11T05:38:27.494Z,100.00
2022-08-11T05:41:15.440Z,100.00
2022-08-11T05:44:19.911Z,100.00
2022-08-11T05:47:08.571Z,100.00
2022-08-11T05:49:56.656Z,100.00
2022-08-11T05:52:55.418Z,100.00
2022-08-11T05:55:58.358Z,100.00
2022-08-11T05:58:42.663Z,100.00
2022-08-11T06:01:12.416Z,100.00
2022-08-11T06:04:05.068Z,100.00
2022-08-11T06:06:45.179Z,100.00
2022-08-11T06:09:14.583Z,100.00
2022-08-11T06:11:44.966Z,100.00
2022-08-11T06:14:13.195Z,100.00
2022-08-11T06:16:42.921Z,100.00
2022-08-11T06:19:10.966Z,100.00
2022-08-11T06:21:38.879Z,98.11
2022-08-11T06:24:12.706Z,95.07
2022-08-11T06:27:08.706Z,94.09
2022-08-11T06:29:37.530Z,91.03
2022-08-11T06:32:06.076Z,88.06
2022-08-11T06:34:41.371Z,86.82
2022-08-11T06:37:24.187Z,81.90
2022-08-11T06:40:13.280Z,86.50
2022-08-11T06:43:02.291Z,82.32
2022-08-11T06:45:35.338Z,76.69
2022-08-11T06:48:03.273Z,71.75
2022-08-11T06:50:50.054Z,71.28
2022-08-11T06:53:19.979Z,72.30
2022-08-11T06:56:07.535Z,69.19
2022-08-11T06:58:59.018Z,67.60
2022-08-11T07:01:31.643Z,63.60
2022-08-11T07:04:06.709Z,62.25
2022-08-11T07:07:16.530Z,61.40
2022-08-11T07:10:50.271Z,60.94
2022-08-11T07:13:45.405Z,56.03
2022-08-11T07:16:18.657Z,56.36
2022-08-11T07:19:20.241Z,49.75
2022-08-11T07:22:07.627Z,50.32
2022-08-11T07:25:03.601Z,48.75
2022-08-11T07:27:59.987Z,49.81
2022-08-11T07:30:27.541Z,50.85
2022-08-11T07:32:57.583Z,47.52
2022-08-11T07:35:36.742Z,46.93
2022-08-11T07:38:09.456Z,49.62
2022-08-11T07:40:37.590Z,46.60
2022-08-11T07:43:07.173Z,47.10
2022-08-11T07:45:53.446Z,45.13
2022-08-11T07:48:39.463Z,43.93
2022-08-11T07:51:25.582Z,44.05
2022-08-11T07:53:58.459Z,43.63
2022-08-11T07:56:55.348Z,43.42
2022-08-11T07:59:57.572Z,42.63
2022-08-11T08:02:49.906Z,42.90
2022-08-11T08:05:37.727Z,44.50
2022-08-11T08:08:24.449Z,41.50
2022-08-11T08:11:11.331Z,42.35
2022-08-11T08:13:57.272Z,41.05
2022-08-11T08:16:43.321Z,40.21
2022-08-11T08:19:16.312Z,40.22
2022-08-11T08:21:45.370Z,38.89
2022-08-11T08:24:12.891Z,39.50
2022-08-11T08:26:59.499Z,38.88
2022-08-11T08:29:48.119Z,38.32
2022-08-11T08:32:17.481Z,38.40
2022-08-11T08:34:46.064Z,38.33
2022-08-11T08:37:16.199Z,38.61
2022-08-11T08:40:02.442Z,36.67
2022-08-11T08:42:32.765Z,36.56
2022-08-11T08:45:08.439Z,37.95
2022-08-11T08:47:43.508Z,36.66
2022-08-11T08:50:27.557Z,36.49
2022-08-11T08:53:05.935Z,35.34
2022-08-11T08:55:33.948Z,35.81
2022-08-11T08:58:01.933Z,33.39
2022-08-11T09:00:41.266Z,35.00
2022-08-11T09:03:38.116Z,35.38
2022-08-11T09:05:56.510Z,35.28
2022-08-11T09:08:24.976Z,33.27
2022-08-11T09:11:14.101Z,33.20
2022-08-11T09:13:44.657Z,33.57
2022-08-11T09:16:12.915Z,34.12
2022-08-11T09:18:44.838Z,32.90
2022-08-11T09:21:39.252Z,34.62
2022-08-11T09:24:26.016Z,34.23
2022-08-11T09:26:59.561Z,32.45
2022-08-11T09:29:30.861Z,33.23
2022-08-11T09:31:58.994Z,34.08
2022-08-11T09:34:26.960Z,33.48
2022-08-11T09:37:13.220Z,32.42
2022-08-11T09:40:00.570Z,33.18
2022-08-11T09:42:47.949Z,31.67
2022-08-11T09:45:16.662Z,31.73
2022-08-11T09:47:44.142Z,32.28
2022-08-11T09:50:12.957Z,31.47
2022-08-11T09:52:57.147Z,32.49
2022-08-11T09:55:28.430Z,29.88
2022-08-11T09:58:41.537Z,31.12
2022-08-11T10:01:02.337Z,30.88
2022-08-11T10:03:31.564Z,31.94
2022-08-11T10:06:32.826Z,31.07
2022-08-11T10:09:05.405Z,31.33
2022-08-11T10:11:35.190Z,32.41
2022-08-11T10:14:34.466Z,31.70
2022-08-11T10:17:06.622Z,32.04
2022-08-11T10:19:37.429Z,30.05
2022-08-11T10:22:26.986Z,30.50
2022-08-11T10:25:19.687Z,30.50
2022-08-11T10:28:32.884Z,29.75
2022-08-11T10:30:57.268Z,29.86
2022-08-11T10:33:49.186Z,28.38
2022-08-11T10:36:31.952Z,27.25
2022-08-11T10:39:00.793Z,28.08
2022-08-11T10:42:03.389Z,28.30
2022-08-11T10:44:39.686Z,28.24
2022-08-11T10:47:26.554Z,27.54
2022-08-11T10:50:13.066Z,28.77
2022-08-11T10:52:59.912Z,28.33
2022-08-11T10:55:46.344Z,27.51
2022-08-11T10:58:33.308Z,27.28
2022-08-11T11:01:01.513Z,26.72
2022-08-11T11:03:31.472Z,25.19
2022-08-11T11:06:27.923Z,26.08
2022-08-11T11:09:15.012Z,28.05
2022-08-11T11:12:32.114Z,26.55
2022-08-11T11:15:21.229Z,27.96
2022-08-11T11:18:04.785Z,28.80
2022-08-11T11:20:38.629Z,28.88
2022-08-11T11:23:14.134Z,28.49
2022-08-11T11:26:10.368Z,27.17
2022-08-11T11:28:52.178Z,28.46
2022-08-11T11:31:33.935Z,26.88
2022-08-11T11:34:37.929Z,26.95
2022-08-11T11:37:22.666Z,27.08
2022-08-11T11:39:50.386Z,27.64
2022-08-11T11:42:18.684Z,27.68
2022-08-11T11:44:47.302Z,28.39
2022-08-11T11:47:15.873Z,27.19
2022-08-11T11:49:44.335Z,27.43
2022-08-11T11:52:17.454Z,25.56
2022-08-11T11:54:45.788Z,24.44
2022-08-11T11:57:35.159Z,25.08
2022-08-11T12:00:23.332Z,24.44
2022-08-11T12:03:03.089Z,25.23
2022-08-11T12:05:33.852Z,26.57
2022-08-11T12:08:16.447Z,27.74
2022-08-11T12:10:47.984Z,27.73
2022-08-11T12:13:36.315Z,28.58
2022-08-11T12:16:34.259Z,28.55
2022-08-11T12:19:00.380Z,28.54
2022-08-11T12:21:29.343Z,29.29
2022-08-11T12:24:17.154Z,29.15
2022-08-11T12:27:15.389Z,27.37
2022-08-11T12:29:41.399Z,26.64
2022-08-11T12:32:11.489Z,26.19
2022-08-11T12:34:38.984Z,24.96
2022-08-11T12:37:13.166Z,27.31
2022-08-11T12:40:43.076Z,25.05
2022-08-11T12:43:24.324Z,26.65
2022-08-11T12:46:08.885Z,26.60
2022-08-11T12:49:02.570Z,25.65
2022-08-11T12:52:11.621Z,25.54
2022-08-11T12:55:13.702Z,26.99
2022-08-11T12:58:06.002Z,25.20
2022-08-11T13:00:52.556Z,25.07
2022-08-11T13:03:39.324Z,24.68
2022-08-11T13:06:07.654Z,25.33
2022-08-11T13:08:38.978Z,25.63
2022-08-11T13:11:56.446Z,23.48
2022-08-11T13:14:15.269Z,23.71
2022-08-11T13:17:03.432Z,23.97
2022-08-11T13:19:31.420Z,23.11
2022-08-11T13:21:59.046Z,24.00
2022-08-11T13:24:26.374Z,24.39
2022-08-11T13:26:53.732Z,26.46
2022-08-11T13:29:24.435Z,27.02
2022-08-11T13:31:54.066Z,25.61
2022-08-11T13:34:23.224Z,24.27
2022-08-11T13:36:54.513Z,23.49
2022-08-11T13:39:24.599Z,23.53
2022-08-11T13:41:53.749Z,24.34
2022-08-11T13:44:25.642Z,24.25
2022-08-11T13:47:04.339Z,24.40
2022-08-11T13:49:35.077Z,24.84
2022-08-11T13:52:03.075Z,27.07
2022-08-11T13:54:36.996Z,26.97
2022-08-11T13:57:09.127Z,28.03
2022-08-11T13:59:44.005Z,27.06
2022-08-11T14:02:29.251Z,25.71
2022-08-11T14:05:09.652Z,25.59
2022-08-11T14:07:39.286Z,25.21
2022-08-11T14:10:08.224Z,24.74
2022-08-11T14:12:55.819Z,23.57
2022-08-11T14:15:27.985Z,25.11
2022-08-11T14:18:01.830Z,24.04
2022-08-11T14:20:53.793Z,23.51
2022-08-11T14:23:27.620Z,24.02
2022-08-11T14:26:14.840Z,23.34
2022-08-11T14:28:45.451Z,24.35
2022-08-11T14:31:15.860Z,24.58
2022-08-11T14:33:59.833Z,23.93
2022-08-11T14:36:36.219Z,24.29
2022-08-11T14:39:07.394Z,24.32
2022-08-11T14:42:11.324Z,24.87
2022-08-11T14:45:03.423Z,24.09
2022-08-11T14:47:36.922Z,23.95
2022-08-11T14:50:11.341Z,23.74
2022-08-11T14:52:51.009Z,25.55
2022-08-11T14:55:38.813Z,24.17
2022-08-11T14:58:08.788Z,24.71
2022-08-11T15:00:36.655Z,24.40
2022-08-11T15:03:11.837Z,25.60
2022-08-11T15:05:57.705Z,25.21
2022-08-11T15:08:47.600Z,26.49
2022-08-11T15:11:35.836Z,27.12
2022-08-11T15:14:04.972Z,27.04
2022-08-11T15:16:56.148Z,27.49
2022-08-11T15:19:25.630Z,27.31
2022-08-11T15:22:10.988Z,27.48
2022-08-11T15:24:38.524Z,26.55
2022-08-11T15:27:30.199Z,26.74
2022-08-11T15:30:29.941Z,26.54
2022-08-11T15:33:23.214Z,27.47
2022-08-11T15:36:10.169Z,27.14
2022-08-11T15:38:44.866Z,27.35
2022-08-11T15:41:36.262Z,27.81
2022-08-11T15:44:44.533Z,28.01
2022-08-11T15:47:14.494Z,27.99
2022-08-11T15:50:12.078Z,28.13
2022-08-11T15:52:38.083Z,28.05
2022-08-11T15:55:08.867Z,29.39
2022-08-11T15:57:55.402Z,28.89
2022-08-11T16:00:41.607Z,29.52
2022-08-11T16:04:05.544Z,29.75
2022-08-11T16:06:17.228Z,29.77
2022-08-11T16:08:45.049Z,30.15
2022-08-11T16:11:13.541Z,29.76
2022-08-11T16:13:40.869Z,30.45
2022-08-11T16:16:15.768Z,30.24
2022-08-11T16:18:51.830Z,30.79
2022-08-11T16:21:34.595Z,30.87
2022-08-11T16:25:58.355Z,31.12
2022-08-11T16:27:07.693Z,31.65
2022-08-11T16:29:43.841Z,31.88
2022-08-11T16:32:20.681Z,31.91
2022-08-11T16:35:16.121Z,31.89
2022-08-11T16:38:03.519Z,34.86
2022-08-11T16:40:32.499Z,35.54
2022-08-11T16:43:19.905Z,35.00
2022-08-11T16:46:06.833Z,33.83
2022-08-11T16:48:41.516Z,34.12
2022-08-11T16:51:11.563Z,39.14
2022-08-11T16:53:54.800Z,39.28
2022-08-11T16:56:45.445Z,39.18
2022-08-11T16:59:43.560Z,41.17
2022-08-11T17:02:40.499Z,37.80
2022-08-11T17:05:30.920Z,40.72
2022-08-11T17:08:20.967Z,42.58
2022-08-11T17:11:15.111Z,47.01
2022-08-11T17:13:50.360Z,42.50
2022-08-11T17:16:24.242Z,45.86
2022-08-11T17:19:10.868Z,47.32
2022-08-11T17:21:59.820Z,52.55
2022-08-11T17:24:28.204Z,50.83
2022-08-11T17:26:59.839Z,48.62
2022-08-11T17:29:54.789Z,43.50
2022-08-11T17:32:56.253Z,42.11
2022-08-11T17:35:31.404Z,41.89
2022-08-11T17:38:04.317Z,45.82
2022-08-11T17:40:37.353Z,46.04
2022-08-11T17:43:24.882Z,45.36
2022-08-11T17:46:31.038Z,45.92
2022-08-11T17:48:58.282Z,44.49
2022-08-11T17:51:44.400Z,46.55
2022-08-11T17:54:30.912Z,45.42
2022-08-11T17:57:20.290Z,45.16
2022-08-11T17:59:53.864Z,47.55
2022-08-11T18:02:45.152Z,43.76
2022-08-11T18:05:13.903Z,49.69
2022-08-11T18:08:03.901Z,47.93
2022-08-11T18:10:52.039Z,48.90
2022-08-11T18:13:41.340Z,48.62
2022-08-11T18:16:28.322Z,52.16
2022-08-11T18:19:14.165Z,51.74
2022-08-11T18:22:14.557Z,50.47
2022-08-11T18:25:10.329Z,51.94
2022-08-11T18:27:59.258Z,50.40
2022-08-11T18:30:46.929Z,52.41
2022-08-11T18:33:56.663Z,53.55
2022-08-11T18:36:42.573Z,53.42
2022-08-11T18:39:30.882Z,58.15
2022-08-11T18:42:29.562Z,59.66
2022-08-11T18:45:20.290Z,61.69
2022-08-11T18:48:09.353Z,59.37
2022-08-11T18:51:29.814Z,58.97
2022-08-11T18:54:09.550Z,59.45
2022-08-11T18:56:54.895Z,60.54
2022-08-11T18:59:46.215Z,62.21
2022-08-11T19:02:48.890Z,61.58
2022-08-11T19:06:06.002Z,60.48
2022-08-11T19:08:53.642Z,62.98
2022-08-11T19:11:42.511Z,63.62
2022-08-11T19:14:31.286Z,62.41
2022-08-11T19:17:44.909Z,69.17
2022-08-11T19:20:30.139Z,64.88
2022-08-11T19:23:17.460Z,67.76
2022-08-11T19:26:04.520Z,67.64
2022-08-11T19:28:52.371Z,67.69
2022-08-11T19:31:42.505Z,69.72
2022-08-11T19:34:30.699Z,66.58
2022-08-11T19:37:18.618Z,66.41
2022-08-11T19:40:07.989Z,66.70
2022-08-11T19:42:54.689Z,66.51
2022-08-11T19:45:41.552Z,65.66
2022-08-11T19:48:32.679Z,65.45
2022-08-11T19:51:19.698Z,65.71
2022-08-11T19:54:07.391Z,66.04
2022-08-11T19:56:55.229Z,64.88
2022-08-11T19:59:42.032Z,70.87
2022-08-11T20:02:29.102Z,71.64
2022-08-11T20:05:14.532Z,69.94
2022-08-11T20:08:01.702Z,68.94
2022-08-11T20:10:48.985Z,69.37
2022-08-11T20:13:35.378Z,71.45
2022-08-11T20:16:23.182Z,71.06
2022-08-11T20:19:11.663Z,70.87
2022-08-11T20:22:00.974Z,74.31
2022-08-11T20:24:51.512Z,76.34
2022-08-11T20:27:38.197Z,76.16
2022-08-11T20:30:24.571Z,77.45
2022-08-11T20:33:11.700Z,80.90
2022-08-11T20:35:58.750Z,79.47
2022-08-11T20:38:48.453Z,82.95
2022-08-11T20:41:58.203Z,81.89
2022-08-11T20:44:42.877Z,82.49
2022-08-11T20:47:29.726Z,79.88
2022-08-11T20:50:19.433Z,83.38
2022-08-11T20:53:07.246Z,83.39
2022-08-11T20:55:53.939Z,82.28
2022-08-11T20:59:11.816Z,83.53
2022-08-11T21:01:47.420Z,85.50
2022-08-11T21:04:37.960Z,82.54
2022-08-11T21:07:41.440Z,81.67
2022-08-11T21:10:30.452Z,90.29
2022-08-11T21:13:26.480Z,92.20
2022-08-11T21:16:25.149Z,89.98
2022-08-11T21:19:16.092Z,90.19
2022-08-11T21:22:03.810Z,92.32
2022-08-11T21:24:51.995Z,92.06
2022-08-11T21:27:39.821Z,90.29
2022-08-11T21:30:25.875Z,89.44
2022-08-11T21:33:12.198Z,88.88
2022-08-11T21:35:58.620Z,90.73
2022-08-11T21:38:46.098Z,92.55
2022-08-11T21:41:32.433Z,92.05
2022-08-11T21:44:18.965Z,93.93
2022-08-11T21:47:06.040Z,93.80
2022-08-11T21:49:52.234Z,95.33
2022-08-11T21:52:38.355Z,96.62
2022-08-11T21:55:24.191Z,98.46
2022-08-11T21:58:10.074Z,99.56
2022-08-11T22:00:56.090Z,97.96
2022-08-11T22:03:49.858Z,99.20
2022-08-11T22:06:36.492Z,98.19
2022-08-11T22:09:22.258Z,96.63
2022-08-11T22:12:33.432Z,99.79
2022-08-11T22:15:14.710Z,99.89
2022-08-11T22:18:00.134Z,100.00
2022-08-11T22:20:46.450Z,100.00
2022-08-11T22:23:36.007Z,100.00
2022-08-11T22:26:22.825Z,98.93
2022-08-11T22:29:08.618Z,100.00
2022-08-11T22:31:56.920Z,100.00
2022-08-11T22:34:53.457Z,100.00
2022-08-11T22:37:40.971Z,99.00
2022-08-11T22:40:28.804Z,100.00
2022-08-11T22:43:14.643Z,98.87
2022-08-11T22:46:00.404Z,98.58
2022-08-11T22:48:48.834Z,96.35
2022-08-11T22:51:37.083Z,94.33
2022-08-11T22:54:23.622Z,93.41
2022-08-11T22:57:10.159Z,92.95
2022-08-11T22:59:56.372Z,92.02
2022-08-11T23:03:55.229Z,92.49
2022-08-11T23:06:41.241Z,93.00
2022-08-11T23:09:27.878Z,93.13
2022-08-11T23:12:13.908Z,91.75
2022-08-11T23:15:00.279Z,92.20
2022-08-11T23:17:46.996Z,91.53
2022-08-11T23:20:36.988Z,91.89
2022-08-11T23:23:33.287Z,90.30
2022-08-11T23:26:20.208Z,90.81
2022-08-11T23:29:06.321Z,91.50
2022-08-11T23:31:54.341Z,92.08
2022-08-11T23:35:37.253Z,91.63
2022-08-11T23:37:54.251Z,92.08
2022-08-11T23:40:39.643Z,92.04
2022-08-11T23:43:26.473Z,92.12
2022-08-11T23:46:11.789Z,93.06
2022-08-11T23:48:58.915Z,93.94
2022-08-11T23:51:46.602Z,94.22
2022-08-11T23:54:37.285Z,95.28
2022-08-11T23:57:24.140Z,95.80
